createdAt,value
2023-04-20T00:04:15.733Z,101844.56
2023-04-20T00:08:18.548Z,101846.50
2023-04-20T00:12:54.662Z,101834.38
2023-04-20T00:16:57.516Z,101820.78
2023-04-20T00:21:00.264Z,101828.25
2023-04-20T00:25:03.050Z,101813.69
2023-04-20T00:29:37.657Z,101809.72
2023-04-20T00:33:40.864Z,101795.16
2023-04-20T00:37:43.767Z,101785.53
2023-04-20T00:41:46.588Z,101787.41
2023-04-20T00:46:39.545Z,101784.69
2023-04-20T00:50:43.777Z,101774.66
2023-04-20T00:55:41.369Z,101772.97
2023-04-20T00:59:44.129Z,101758.56
2023-04-20T01:03:47.243Z,101756.03
2023-04-20T01:08:25.657Z,101743.94
2023-04-20T01:12:29.786Z,101741.81
2023-04-20T01:16:34.870Z,101724.56
2023-04-20T01:20:37.764Z,101733.50
2023-04-20T01:25:19.170Z,101723.78
2023-04-20T01:29:22.082Z,101718.03
2023-04-20T01:34:18.277Z,101714.72
2023-04-20T01:38:22.231Z,101716.25
2023-04-20T01:42:26.406Z,101709.00
2023-04-20T01:46:29.622Z,101702.38
2023-04-20T01:51:08.688Z,101702.75
2023-04-20T01:55:49.092Z,101689.88
2023-04-20T01:59:53.176Z,101678.06
2023-04-20T02:04:30.287Z,101670.38
2023-04-20T02:08:34.482Z,101672.06
2023-04-20T02:13:04.526Z,101674.19
2023-04-20T02:17:09.499Z,101666.09
2023-04-20T02:21:12.547Z,101657.81
2023-04-20T02:25:15.900Z,101652.38
2023-04-20T02:29:19.822Z,101651.38
2023-04-20T02:33:24.629Z,101651.59
2023-04-20T02:37:29.648Z,101648.84
2023-04-20T02:41:32.787Z,101640.72
2023-04-20T02:45:37.416Z,101634.88
2023-04-20T02:49:42.225Z,101644.91
2023-04-20T02:53:45.496Z,101634.25
2023-04-20T02:57:55.811Z,101637.59
2023-04-20T03:02:10.664Z,101640.34
2023-04-20T03:06:16.210Z,101632.66
2023-04-20T03:10:24.637Z,101640.53
2023-04-20T03:14:36.311Z,101632.19
2023-04-20T03:18:39.596Z,101629.09
2023-04-20T03:22:44.300Z,101625.34
2023-04-20T03:26:47.447Z,101619.69
2023-04-20T03:30:58.001Z,101622.41
2023-04-20T03:35:01.037Z,101617.22
2023-04-20T03:39:06.009Z,101614.09
2023-04-20T03:43:08.842Z,101607.66
2023-04-20T03:47:11.757Z,101613.47
2023-04-20T03:51:14.843Z,101607.44
2023-04-20T03:55:19.318Z,101599.28
2023-04-20T03:59:28.722Z,101600.06
2023-04-20T04:03:31.731Z,101595.69
2023-04-20T04:07:34.588Z,101588.38
2023-04-20T04:11:39.307Z,101586.06
2023-04-20T04:15:42.334Z,101581.25
2023-04-20T04:19:49.585Z,101582.94
2023-04-20T04:23:52.776Z,101576.50
2023-04-20T04:28:20.710Z,101570.88
2023-04-20T04:32:34.557Z,101568.13
2023-04-20T04:36:38.483Z,101567.28
2023-04-20T04:40:45.287Z,101569.81
2023-04-20T04:44:52.216Z,101567.09
2023-04-20T04:49:02.717Z,101578.75
2023-04-20T04:53:05.492Z,101564.78
2023-04-20T04:57:08.622Z,101569.97
2023-04-20T05:01:13.139Z,101568.13
2023-04-20T05:05:16.629Z,101575.88
2023-04-20T05:09:20.581Z,101588.59
2023-04-20T05:13:24.727Z,101575.28
2023-04-20T05:17:29.073Z,101563.78
2023-04-20T05:21:32.759Z,101573.59
2023-04-20T05:25:36.280Z,101589.06
2023-04-20T05:29:39.704Z,101598.69
2023-04-20T05:33:44.455Z,101605.13
2023-04-20T05:37:47.707Z,101601.59
2023-04-20T05:41:50.745Z,101599.31
2023-04-20T05:45:54.856Z,101586.53
2023-04-20T05:50:00.270Z,101584.66
2023-04-20T05:54:06.893Z,101588.56
2023-04-20T05:58:14.571Z,101599.00
2023-04-20T06:02:51.499Z,101597.53
2023-04-20T06:06:56.087Z,101601.91
2023-04-20T06:10:59.102Z,101596.28
2023-04-20T06:15:03.933Z,101592.38
2023-04-20T06:19:06.736Z,101602.41
2023-04-20T06:23:14.195Z,101589.50
2023-04-20T06:27:16.943Z,101600.53
2023-04-20T06:31:19.930Z,101597.63
2023-04-20T06:35:23.641Z,101581.59
2023-04-20T06:39:33.542Z,101588.03
2023-04-20T06:43:36.546Z,101595.19
2023-04-20T06:47:39.297Z,101584.56
2023-04-20T06:51:41.996Z,101592.09
2023-04-20T06:55:46.116Z,101594.00
2023-04-20T06:59:48.872Z,101599.63
2023-04-20T07:03:52.921Z,101599.00
2023-04-20T07:07:56.059Z,101594.41
2023-04-20T07:12:00.895Z,101595.47
2023-04-20T07:16:04.540Z,101589.63
2023-04-20T07:20:08.938Z,101582.72
2023-04-20T07:24:12.546Z,101588.13
2023-04-20T07:28:16.712Z,101578.13
2023-04-20T07:32:20.052Z,101573.13
2023-04-20T07:36:23.159Z,101569.59
2023-04-20T07:40:26.166Z,101560.41
2023-04-20T07:44:30.908Z,101570.66
2023-04-20T07:48:34.772Z,101583.56
2023-04-20T07:52:37.908Z,101590.00
2023-04-20T07:56:40.978Z,101590.00
2023-04-20T08:00:48.651Z,101580.44
2023-04-20T08:04:51.718Z,101585.03
2023-04-20T08:08:56.434Z,101569.19
2023-04-20T08:12:59.553Z,101573.19
2023-04-20T08:17:04.086Z,101570.69
2023-04-20T08:21:07.319Z,101564.41
2023-04-20T08:25:12.344Z,101547.69
2023-04-20T08:29:15.403Z,101553.31
2023-04-20T08:33:54.629Z,101554.94
2023-04-20T08:37:57.478Z,101575.38
2023-04-20T08:42:00.332Z,101558.00
2023-04-20T08:46:03.768Z,101558.84
2023-04-20T08:50:09.734Z,101554.03
2023-04-20T08:54:13.879Z,101554.16
2023-04-20T08:58:17.051Z,101555.16
2023-04-20T09:02:21.865Z,101559.97
2023-04-20T09:06:26.489Z,101561.38
2023-04-20T09:10:41.096Z,101559.22
2023-04-20T09:14:44.844Z,101556.09
2023-04-20T09:18:53.204Z,101550.72
2023-04-20T09:22:57.537Z,101547.41
2023-04-20T09:27:01.345Z,101543.63
2023-04-20T09:31:05.932Z,101535.78
2023-04-20T09:35:10.054Z,101550.00
2023-04-20T09:39:16.515Z,101548.59
2023-04-20T09:43:20.585Z,101541.41
2023-04-20T09:47:25.915Z,101537.88
2023-04-20T09:51:29.762Z,101543.81
2023-04-20T09:55:34.470Z,101531.94
2023-04-20T09:59:38.310Z,101530.53
2023-04-20T10:03:42.873Z,101528.75
2023-04-20T10:07:46.103Z,101529.09
2023-04-20T10:11:53.948Z,101528.22
2023-04-20T10:15:58.416Z,101518.84
2023-04-20T10:20:01.462Z,101515.44
2023-04-20T10:24:04.769Z,101522.09
2023-04-20T10:28:10.541Z,101532.03
2023-04-20T10:32:22.981Z,101522.66
2023-04-20T10:36:29.265Z,101500.44
2023-04-20T10:40:32.151Z,101508.88
2023-04-20T10:44:36.419Z,101505.59
2023-04-20T10:48:39.125Z,101501.81
2023-04-20T10:52:44.941Z,101502.59
2023-04-20T10:56:49.653Z,101507.56
2023-04-20T11:01:01.296Z,101497.56
2023-04-20T11:05:12.489Z,101489.53
2023-04-20T11:09:20.972Z,101493.59
2023-04-20T11:13:25.696Z,101497.25
2023-04-20T11:17:36.709Z,101490.69
2023-04-20T11:21:42.707Z,101491.13
2023-04-20T11:25:50.819Z,101485.31
2023-04-20T11:29:58.392Z,101471.28
2023-04-20T11:34:06.013Z,101484.06
2023-04-20T11:38:10.440Z,101485.31
2023-04-20T11:42:13.585Z,101474.41
2023-04-20T11:46:18.161Z,101481.06
2023-04-20T11:50:22.657Z,101482.59
2023-04-20T11:54:27.313Z,101476.66
2023-04-20T11:58:30.052Z,101477.34
2023-04-20T12:02:32.934Z,101479.63
2023-04-20T12:06:37.082Z,101474.44
2023-04-20T12:10:40.332Z,101482.03
2023-04-20T12:14:43.154Z,101477.34
2023-04-20T12:18:46.807Z,101477.34
2023-04-20T12:22:51.565Z,101481.38
2023-04-20T12:26:54.559Z,101485.63
2023-04-20T12:30:58.465Z,101479.47
2023-04-20T12:35:01.485Z,101481.09
2023-04-20T12:39:05.628Z,101481.00
2023-04-20T12:43:08.480Z,101480.09
2023-04-20T12:47:13.548Z,101477.38
2023-04-20T12:51:16.519Z,101476.75
2023-04-20T12:55:20.707Z,101460.47
2023-04-20T12:59:23.682Z,101463.94
2023-04-20T13:03:26.693Z,101456.13
2023-04-20T13:07:29.799Z,101463.22
2023-04-20T13:11:34.052Z,101449.56
2023-04-20T13:15:39.130Z,101437.22
2023-04-20T13:19:42.283Z,101438.72
2023-04-20T13:23:47.158Z,101425.56
2023-04-20T13:27:51.279Z,101442.69
2023-04-20T13:31:54.174Z,101432.50
2023-04-20T13:35:57.321Z,101435.69
2023-04-20T13:40:01.576Z,101441.66
2023-04-20T13:44:07.805Z,101426.75
2023-04-20T13:48:10.937Z,101433.28
2023-04-20T13:52:13.957Z,101420.19
2023-04-20T13:56:17.316Z,101411.44
2023-04-20T14:01:00.046Z,101405.59
2023-04-20T14:05:34.353Z,101408.31
2023-04-20T14:09:38.772Z,101411.47
2023-04-20T14:13:42.018Z,101404.84
2023-04-20T14:17:46.913Z,101394.06
2023-04-20T14:22:01.299Z,101409.00
2023-04-20T14:26:04.193Z,101404.78
2023-04-20T14:30:10.086Z,101390.97
2023-04-20T14:34:14.446Z,101388.34
2023-04-20T14:38:17.577Z,101374.91
2023-04-20T14:42:20.615Z,101382.59
2023-04-20T14:46:23.681Z,101378.75
2023-04-20T14:50:28.654Z,101390.31
2023-04-20T14:54:31.740Z,101380.63
2023-04-20T14:58:35.964Z,101373.00
2023-04-20T15:02:39.886Z,101371.78
2023-04-20T15:06:44.842Z,101360.19
2023-04-20T15:10:47.687Z,101381.94
2023-04-20T15:14:51.286Z,101361.88
2023-04-20T15:18:54.702Z,101378.88
2023-04-20T15:22:58.945Z,101368.56
2023-04-20T15:27:03.158Z,101353.84
2023-04-20T15:31:08.918Z,101339.88
2023-04-20T15:35:11.822Z,101355.94
2023-04-20T15:39:16.827Z,101357.34
2023-04-20T15:43:19.640Z,101365.06
2023-04-20T15:47:22.843Z,101353.09
2023-04-20T15:51:26.029Z,101350.94
2023-04-20T15:55:34.269Z,101346.38
2023-04-20T15:59:49.256Z,101338.13
2023-04-20T16:03:52.356Z,101337.97
2023-04-20T16:07:55.720Z,101315.50
2023-04-20T16:12:03.715Z,101323.78
2023-04-20T16:16:07.420Z,101331.41
2023-04-20T16:20:11.211Z,101324.28
2023-04-20T16:24:14.307Z,101316.41
2023-04-20T16:28:18.902Z,101325.63
2023-04-20T16:32:22.380Z,101324.03
2023-04-20T16:36:26.401Z,101327.75
2023-04-20T16:40:35.694Z,101321.63
2023-04-20T16:44:41.808Z,101319.88
2023-04-20T16:48:45.181Z,101323.94
2023-04-20T16:52:59.175Z,101325.91
2023-04-20T16:57:03.175Z,101334.16
2023-04-20T17:01:11.405Z,101332.28
2023-04-20T17:05:16.214Z,101329.13
2023-04-20T17:09:19.077Z,101350.28
2023-04-20T17:13:22.423Z,101328.09
2023-04-20T17:17:28.211Z,101343.28
2023-04-20T17:21:31.647Z,101353.03
2023-04-20T17:25:36.116Z,101357.41
2023-04-20T17:29:42.961Z,101363.81
2023-04-20T17:33:48.271Z,101375.91
2023-04-20T17:37:51.770Z,101382.19
2023-04-20T17:41:55.407Z,101385.66
2023-04-20T17:45:58.990Z,101377.31
2023-04-20T17:50:11.703Z,101388.66
2023-04-20T17:54:24.376Z,101390.06
2023-04-20T17:58:29.185Z,101406.50
2023-04-20T18:02:32.401Z,101401.22
2023-04-20T18:06:36.927Z,101407.50
2023-04-20T18:10:40.458Z,101413.72
2023-04-20T18:14:44.041Z,101411.16
2023-04-20T18:18:48.155Z,101413.38
2023-04-20T18:22:52.793Z,101409.06
2023-04-20T18:27:02.054Z,101417.25
2023-04-20T18:31:15.017Z,101434.84
2023-04-20T18:35:30.547Z,101428.25
2023-04-20T18:39:50.672Z,101434.03
2023-04-20T18:43:54.551Z,101432.47
2023-04-20T18:48:06.961Z,101441.44
2023-04-20T18:52:34.576Z,101436.22
2023-04-20T18:56:45.224Z,101442.34
2023-04-20T19:00:49.073Z,101434.41
2023-04-20T19:04:58.084Z,101417.44
2023-04-20T19:09:02.184Z,101414.69
2023-04-20T19:13:06.751Z,101424.13
2023-04-20T19:17:10.692Z,101426.88
2023-04-20T19:21:15.148Z,101431.03
2023-04-20T19:25:27.090Z,101422.84
2023-04-20T19:29:44.245Z,101426.19
2023-04-20T19:33:57.303Z,101401.59
2023-04-20T19:38:00.706Z,101413.91
2023-04-20T19:42:05.001Z,101399.25
2023-04-20T19:46:09.921Z,101406.16
2023-04-20T19:50:13.965Z,101389.41
2023-04-20T19:54:30.996Z,101396.16
2023-04-20T19:58:36.745Z,101390.94
2023-04-20T20:02:49.212Z,101394.97
2023-04-20T20:06:59.076Z,101395.63
2023-04-20T20:11:08.622Z,101385.25
2023-04-20T20:15:26.952Z,101392.78
2023-04-20T20:19:47.755Z,101397.59
2023-04-20T20:23:58.867Z,101388.19
2023-04-20T20:28:03.696Z,101387.78
2023-04-20T20:32:07.081Z,101384.00
2023-04-20T20:36:12.395Z,101391.78
2023-04-20T20:40:15.567Z,101401.53
2023-04-20T20:44:20.688Z,101388.59
2023-04-20T20:48:23.908Z,101381.13
2023-04-20T20:52:28.337Z,101392.19
2023-04-20T20:56:31.361Z,101378.63
2023-04-20T21:00:35.616Z,101364.00
2023-04-20T21:04:48.923Z,101370.91
2023-04-20T21:09:18.215Z,101362.53
2023-04-20T21:13:48.044Z,101364.00
2023-04-20T21:18:13.810Z,101354.81
2023-04-20T21:22:35.921Z,101360.25
2023-04-20T21:26:38.768Z,101363.13
2023-04-20T21:30:41.749Z,101350.16
2023-04-20T21:34:46.234Z,101351.00
2023-04-20T21:38:55.247Z,101343.06
2023-04-20T21:42:58.027Z,101346.81
2023-04-20T21:47:02.359Z,101367.72
2023-04-20T21:51:06.666Z,101359.34
2023-04-20T21:55:10.314Z,101362.25
2023-04-20T21:59:14.305Z,101343.91
2023-04-20T22:03:17.135Z,101349.34
2023-04-20T22:07:38.564Z,101349.28
2023-04-20T22:11:41.323Z,101330.09
2023-04-20T22:15:47.265Z,101324.69
2023-04-20T22:20:16.069Z,101320.50
2023-04-20T22:24:20.196Z,101320.13
2023-04-20T22:28:22.945Z,101307.16
2023-04-20T22:32:26.046Z,101295.63
2023-04-20T22:36:29.057Z,101290.81
2023-04-20T22:40:34.594Z,101289.09
2023-04-20T22:44:37.357Z,101272.19
2023-04-20T22:48:40.736Z,101267.00
2023-04-20T22:52:43.837Z,101256.72
2023-04-20T22:56:48.007Z,101247.97
2023-04-20T23:01:02.784Z,101248.41
2023-04-20T23:05:06.877Z,101247.97
2023-04-20T23:09:10.025Z,101232.34
2023-04-20T23:13:47.782Z,101227.16
2023-04-20T23:17:50.804Z,101216.88
2023-04-20T23:22:21.615Z,101211.69
2023-04-20T23:26:24.591Z,101200.19
2023-04-20T23:30:29.295Z,101197.66
2023-04-20T23:34:32.943Z,101196.59
2023-04-20T23:38:35.983Z,101188.00
2023-04-20T23:42:38.872Z,101175.91
2023-04-20T23:46:44.262Z,101172.53
2023-04-20T23:50:49.641Z,101151.19
2023-04-20T23:54:59.064Z,101142.19
2023-04-20T23:59:02.277Z,101147.63
